Time;durP1;ratioP1;P1;durP2;ratioP2;P2;SDS_P1;SDS_P2;PMS_P1;PMS_P2;Temp;Humidity;BMP_temperature;BMP_pressure;BME280_temperature;BME280_humidity;BME280_pressure;Samples;Min_cycle;Max_cycle;Signal;HPM_P1;HPM_P2
2021/01/31 00:02:13;;;;;;;1.37;1.13;;;19.90;22.20;;;;;;5056578;28;20217;-51
2021/01/31 00:04:44;;;;;;;0.70;0.60;;;19.90;22.30;;;;;;5056524;28;20178;-52
2021/01/31 00:07:09;;;;;;;1.13;0.90;;;19.90;22.30;;;;;;5056375;28;20163;-51
2021/01/31 00:09:35;;;;;;;0.90;0.80;;;19.90;22.30;;;;;;5056305;28;20568;-51
2021/01/31 00:12:00;;;;;;;1.00;0.73;;;19.90;22.30;;;;;;5056290;28;20195;-51
2021/01/31 00:14:26;;;;;;;1.00;0.90;;;19.90;22.30;;;;;;5056291;28;20250;-51
2021/01/31 00:16:52;;;;;;;1.23;1.13;;;19.90;22.30;;;;;;5056382;28;20168;-51
2021/01/31 00:19:18;;;;;;;0.93;0.77;;;19.90;22.30;;;;;;5056139;28;20166;-51
2021/01/31 00:21:43;;;;;;;0.80;0.73;;;19.90;22.30;;;;;;5056217;28;20163;-50
2021/01/31 00:24:09;;;;;;;1.10;1.00;;;19.90;22.30;;;;;;5055557;28;20155;-51
2021/01/31 00:26:35;;;;;;;1.10;0.53;;;19.90;22.30;;;;;;5056017;28;20175;-51
2021/01/31 00:29:03;;;;;;;1.43;0.83;;;19.90;22.30;;;;;;5055895;28;20622;-51
2021/01/31 00:31:29;;;;;;;0.98;0.75;;;19.90;22.30;;;;;;5056062;28;20534;-51
2021/01/31 00:33:55;;;;;;;0.85;0.68;;;19.90;22.30;;;;;;5056025;28;20163;-51
2021/01/31 00:36:20;;;;;;;1.10;0.67;;;19.90;22.30;;;;;;5056023;28;20519;-51
2021/01/31 00:38:46;;;;;;;0.73;0.70;;;19.90;22.30;;;;;;5055390;28;20159;-52
2021/01/31 00:41:11;;;;;;;0.80;0.67;;;19.90;22.30;;;;;;5055974;28;20642;-51
2021/01/31 00:43:37;;;;;;;1.63;0.83;;;19.90;22.30;;;;;;5056018;28;20615;-51
2021/01/31 00:46:03;;;;;;;0.70;0.70;;;19.90;22.30;;;;;;5054626;28;20179;-51
2021/01/31 00:48:28;;;;;;;0.80;0.80;;;19.90;22.30;;;;;;5055899;28;20229;-51
2021/01/31 00:50:54;;;;;;;1.97;1.00;;;19.90;22.30;;;;;;5055859;28;20191;-51
2021/01/31 00:53:20;;;;;;;1.00;0.90;;;19.90;22.30;;;;;;5054815;28;20155;-51
2021/01/31 00:55:45;;;;;;;1.07;0.70;;;19.90;22.30;;;;;;5055828;28;20624;-51
2021/01/31 00:58:11;;;;;;;2.03;1.03;;;19.80;22.30;;;;;;5055570;28;20492;-51
2021/01/31 01:00:39;;;;;;;1.20;0.77;;;19.80;22.30;;;;;;5055682;28;20561;-51
2021/01/31 01:03:07;;;;;;;0.55;0.55;;;19.80;22.30;;;;;;5055488;28;20603;-51
2021/01/31 01:05:33;;;;;;;2.15;0.80;;;19.80;22.30;;;;;;5055579;28;20167;-53
2021/01/31 01:07:59;;;;;;;1.13;0.70;;;19.80;22.30;;;;;;5055025;28;20191;-50
2021/01/31 01:10:32;;;;;;;0.95;0.85;;;19.80;22.30;;;;;;5055544;28;20187;-52
2021/01/31 01:12:58;;;;;;;1.42;0.75;;;19.80;22.30;;;;;;5055114;28;20566;-51
2021/01/31 01:15:26;;;;;;;1.58;0.75;;;19.80;22.30;;;;;;5055567;28;20186;-51
2021/01/31 01:17:52;;;;;;;0.70;0.70;;;19.80;22.30;;;;;;5055133;28;20226;-51
2021/01/31 01:20:18;;;;;;;0.70;0.70;;;19.80;22.30;;;;;;5055281;28;20162;-51
2021/01/31 01:22:44;;;;;;;0.85;0.70;;;19.80;22.30;;;;;;5036904;28;20513;-51
2021/01/31 01:25:13;;;;;;;0.70;0.70;;;19.80;22.40;;;;;;5055269;28;20178;-50
2021/01/31 01:27:39;;;;;;;0.70;0.63;;;19.80;22.40;;;;;;5054835;28;20198;-51
2021/01/31 01:30:09;;;;;;;0.73;0.60;;;19.80;22.40;;;;;;5055034;28;20155;-51
2021/01/31 01:32:35;;;;;;;1.10;0.90;;;19.80;22.40;;;;;;5054984;28;20407;-51
2021/01/31 01:35:01;;;;;;;1.17;0.77;;;19.80;22.40;;;;;;5055020;28;20246;-50
2021/01/31 01:37:26;;;;;;;0.90;0.70;;;19.80;22.40;;;;;;5054181;28;20202;-50
2021/01/31 01:39:52;;;;;;;0.83;0.73;;;19.80;22.40;;;;;;5037065;28;20630;-51
2021/01/31 01:42:18;;;;;;;1.33;0.70;;;19.80;22.40;;;;;;5054686;28;20198;-50
2021/01/31 01:44:43;;;;;;;1.00;0.83;;;19.80;22.90;;;;;;5055067;28;20163;-52
2021/01/31 01:47:17;;;;;;;0.77;0.77;;;19.80;22.40;;;;;;5054642;28;20553;-50
2021/01/31 01:49:45;;;;;;;0.68;0.55;;;19.80;22.40;;;;;;5054472;28;20545;-51
2021/01/31 01:52:22;;;;;;;1.23;0.63;;;19.80;22.40;;;;;;5054063;28;20182;-51
2021/01/31 01:55:00;;;;;;;0.70;0.70;;;19.80;22.40;;;;;;5054699;28;20151;-51
2021/01/31 01:57:29;;;;;;;1.73;0.98;;;19.80;22.40;;;;;;5054356;28;20151;-50
2021/01/31 01:59:56;;;;;;;0.80;0.70;;;19.80;22.40;;;;;;5054415;28;20178;-50
2021/01/31 02:02:32;;;;;;;1.25;0.77;;;19.80;22.40;;;;;;5054305;28;20160;-51
2021/01/31 02:05:08;;;;;;;0.85;0.85;;;19.80;22.40;;;;;;5053596;28;20246;-50
2021/01/31 02:07:34;;;;;;;1.73;0.80;;;19.80;22.40;;;;;;5054046;28;20237;-51
2021/01/31 02:10:00;;;;;;;1.13;0.65;;;19.80;22.40;;;;;;5054267;28;20158;-51
2021/01/31 02:12:28;;;;;;;2.33;0.83;;;19.80;22.40;;;;;;5054218;28;20615;-52
2021/01/31 02:14:57;;;;;;;0.82;0.65;;;19.80;22.40;;;;;;5054214;28;20406;-51
2021/01/31 02:17:53;;;;;;;1.67;0.88;;;19.80;22.40;;;;;;5054249;28;20151;-51
2021/01/31 02:20:25;;;;;;;0.95;0.82;;;19.70;22.40;;;;;;5036125;28;20177;-50
2021/01/31 02:23:23;;;;;;;0.80;0.77;;;19.70;22.40;;;;;;5053561;28;20510;-51
2021/01/31 02:26:14;;;;;;;0.60;0.57;;;19.70;22.40;;;;;;5054048;28;20162;-50
2021/01/31 02:29:21;;;;;;;1.85;0.68;;;19.80;22.40;;;;;;5053807;28;20259;-51
2021/01/31 02:32:06;;;;;;;1.45;1.13;;;19.70;22.40;;;;;;5053935;28;20190;-50
2021/01/31 02:34:51;;;;;;;0.80;0.50;;;19.70;22.40;;;;;;5053694;28;20147;-50
2021/01/31 02:37:32;;;;;;;0.90;0.90;;;19.70;22.40;;;;;;5053666;28;20177;-51
2021/01/31 02:40:11;;;;;;;0.70;0.55;;;19.70;22.40;;;;;;5054104;28;20162;-53
2021/01/31 02:42:54;;;;;;;1.20;0.70;;;19.70;22.40;;;;;;5053803;28;20242;-50
2021/01/31 02:45:25;;;;;;;0.68;0.60;;;19.70;22.40;;;;;;5053723;28;20147;-51
2021/01/31 02:48:03;;;;;;;1.00;0.90;;;19.70;22.40;;;;;;5069018;28;20629;-51
2021/01/31 02:50:32;;;;;;;1.20;0.80;;;19.70;22.40;;;;;;5053651;28;20320;-50
2021/01/31 02:53:06;;;;;;;1.13;0.80;;;19.70;23.00;;;;;;5053032;28;20217;-51
2021/01/31 02:55:45;;;;;;;0.70;0.70;;;19.70;22.40;;;;;;5053506;28;20598;-52
2021/01/31 02:58:16;;;;;;;0.80;0.70;;;19.70;22.40;;;;;;5053461;28;20159;-51
2021/01/31 03:01:19;;;;;;;1.33;0.68;;;19.70;22.40;;;;;;5053505;28;20155;-51
2021/01/31 03:03:57;;;;;;;0.60;0.43;;;19.70;22.40;;;;;;5019831;28;20190;-51
2021/01/31 03:06:28;;;;;;;1.17;0.73;;;19.70;22.40;;;;;;5053500;28;20242;-51
2021/01/31 03:09:13;;;;;;;1.05;0.80;;;19.70;22.40;;;;;;5052863;28;20155;-50
2021/01/31 03:11:51;;;;;;;0.70;0.65;;;19.70;22.50;;;;;;5053537;28;20206;-51
2021/01/31 03:14:24;;;;;;;0.80;0.52;;;19.70;22.40;;;;;;5053130;28;20208;-51
2021/01/31 03:16:55;;;;;;;0.80;0.70;;;19.70;22.40;;;;;;5056811;28;20183;-51
2021/01/31 03:19:38;;;;;;;0.70;0.60;;;19.70;22.50;;;;;;5057486;28;20155;-51
2021/01/31 03:22:11;;;;;;;0.70;0.70;;;19.70;22.50;;;;;;5057443;28;20216;-51
2021/01/31 03:24:52;;;;;;;0.70;0.60;;;19.70;22.50;;;;;;5057823;28;20159;-50
2021/01/31 03:27:38;;;;;;;0.90;0.65;;;19.70;22.50;;;;;;5057162;28;20198;-51
2021/01/31 03:30:06;;;;;;;1.30;0.90;;;19.70;22.50;;;;;;5057206;28;20199;-51
2021/01/31 03:32:44;;;;;;;0.70;0.60;;;19.70;22.50;;;;;;5057142;28;20599;-51
2021/01/31 03:35:14;;;;;;;0.95;0.90;;;19.70;22.50;;;;;;5057331;28;20163;-57
2021/01/31 03:37:52;;;;;;;0.70;0.60;;;19.70;22.50;;;;;;5056706;28;20650;-50
2021/01/31 03:40:18;;;;;;;0.95;0.75;;;19.70;22.50;;;;;;5057526;28;20167;-52
2021/01/31 03:42:45;;;;;;;1.23;0.80;;;19.70;22.50;;;;;;5056960;28;20155;-50
2021/01/31 03:45:13;;;;;;;0.75;0.60;;;19.70;22.50;;;;;;5057165;28;20167;-51
2021/01/31 03:48:05;;;;;;;0.98;0.70;;;19.70;22.50;;;;;;5056899;28;20164;-51
2021/01/31 03:50:32;;;;;;;1.00;0.70;;;19.60;22.40;;;;;;5048626;28;20724;-50
2021/01/31 03:52:58;;;;;;;0.70;0.70;;;19.60;22.40;;;;;;5056411;28;20177;-51
2021/01/31 03:55:24;;;;;;;0.80;0.80;;;19.60;22.50;;;;;;5057022;28;20227;-50
2021/01/31 03:57:54;;;;;;;1.30;0.80;;;19.70;22.50;;;;;;5038910;28;20255;-52
2021/01/31 04:00:26;;;;;;;1.10;0.70;;;19.60;22.50;;;;;;5056732;28;20178;-50
2021/01/31 04:02:56;;;;;;;0.70;0.70;;;19.60;22.50;;;;;;5056671;28;20151;-51
2021/01/31 04:05:25;;;;;;;0.98;0.75;;;19.60;22.50;;;;;;5056722;28;20148;-51
2021/01/31 04:07:54;;;;;;;1.27;0.95;;;19.60;22.50;;;;;;5056195;28;20151;-51
2021/01/31 04:10:20;;;;;;;0.50;0.40;;;19.60;22.50;;;;;;5056492;28;20187;-51
2021/01/31 04:12:54;;;;;;;0.60;0.60;;;19.60;22.50;;;;;;5056272;28;20151;-51
2021/01/31 04:15:43;;;;;;;1.15;0.90;;;19.60;22.50;;;;;;5056553;28;20158;-51
2021/01/31 04:18:10;;;;;;;0.80;0.75;;;19.60;22.50;;;;;;5056258;28;20160;-50
2021/01/31 04:20:36;;;;;;;0.50;0.50;;;19.60;22.50;;;;;;5056324;28;20246;-51
2021/01/31 04:23:02;;;;;;;0.90;0.70;;;19.60;22.50;;;;;;5055920;28;20250;-51
2021/01/31 04:25:28;;;;;;;0.60;0.60;;;19.60;22.50;;;;;;5056300;28;20413;-51
2021/01/31 04:27:54;;;;;;;0.70;0.70;;;19.60;22.60;;;;;;5055134;28;20403;-51
2021/01/31 04:30:21;;;;;;;0.82;0.70;;;19.60;22.60;;;;;;5056201;28;20245;-52
2021/01/31 04:32:47;;;;;;;0.85;0.85;;;19.60;22.60;;;;;;5056002;28;20156;-52
2021/01/31 04:35:13;;;;;;;1.10;0.80;;;19.60;22.60;;;;;;5056048;28;20166;-51
2021/01/31 04:37:39;;;;;;;0.70;0.70;;;19.60;22.60;;;;;;5055927;28;20526;-51
2021/01/31 04:40:08;;;;;;;0.97;0.70;;;19.60;22.60;;;;;;5056078;28;20649;-51
2021/01/31 04:42:33;;;;;;;0.80;0.60;;;19.60;22.60;;;;;;5055900;28;20610;-51
2021/01/31 04:44:59;;;;;;;0.93;0.80;;;19.60;22.70;;;;;;5055865;28;20179;-51
2021/01/31 04:47:28;;;;;;;0.90;0.70;;;19.60;22.60;;;;;;5055709;28;20159;-51
2021/01/31 04:50:27;;;;;;;1.40;0.70;;;19.60;22.70;;;;;;5055925;28;20509;-53
2021/01/31 04:53:18;;;;;;;0.68;0.60;;;19.60;22.70;;;;;;5037366;28;20206;-51
2021/01/31 04:56:05;;;;;;;0.88;0.65;;;19.60;22.70;;;;;;5055845;28;20214;-50
2021/01/31 04:58:36;;;;;;;2.75;0.60;;;19.60;22.70;;;;;;5055567;28;20151;-51
2021/01/31 05:01:14;;;;;;;1.05;0.80;;;19.60;22.70;;;;;;5055591;28;20599;-50
2021/01/31 05:03:58;;;;;;;0.98;0.82;;;19.60;22.70;;;;;;5055685;28;20163;-50
2021/01/31 05:06:25;;;;;;;0.70;0.60;;;19.60;22.70;;;;;;5055591;28;20196;-51
2021/01/31 05:08:51;;;;;;;0.65;0.60;;;19.60;22.70;;;;;;5037109;28;20166;-51
2021/01/31 05:11:52;;;;;;;0.90;0.60;;;19.60;22.70;;;;;;5055418;28;20202;-50
2021/01/31 05:14:41;;;;;;;0.60;0.60;;;19.60;22.70;;;;;;5055143;28;20988;-51
2021/01/31 05:17:07;;;;;;;0.60;0.50;;;19.60;22.70;;;;;;5055344;28;20162;-50
2021/01/31 05:19:35;;;;;;;0.70;0.63;;;19.60;22.70;;;;;;5055304;28;20182;-51
2021/01/31 05:22:01;;;;;;;0.77;0.60;;;19.60;22.70;;;;;;5055264;28;20234;-50
2021/01/31 05:24:27;;;;;;;0.53;0.53;;;19.60;22.70;;;;;;5054733;28;20583;-51
2021/01/31 05:27:00;;;;;;;0.60;0.53;;;19.60;22.70;;;;;;5055042;28;20638;-50
2021/01/31 05:29:38;;;;;;;0.70;0.63;;;19.60;22.70;;;;;;5054866;28;20422;-50
2021/01/31 05:32:10;;;;;;;1.27;0.90;;;19.60;22.70;;;;;;5055058;28;20183;-51
2021/01/31 05:34:37;;;;;;;1.20;0.70;;;19.60;22.70;;;;;;5055033;28;20155;-51
2021/01/31 05:37:09;;;;;;;0.80;0.70;;;19.60;22.70;;;;;;5055094;28;20151;-50
2021/01/31 05:39:37;;;;;;;0.90;0.77;;;19.60;22.70;;;;;;5053698;28;20193;-50
2021/01/31 05:42:16;;;;;;;0.80;0.60;;;19.60;22.70;;;;;;5054552;28;20265;-51
2021/01/31 05:44:42;;;;;;;1.20;0.70;;;19.60;22.70;;;;;;5054803;28;20490;-51
2021/01/31 05:47:24;;;;;;;1.02;0.60;;;19.70;22.80;;;;;;5054633;28;20160;-51
2021/01/31 05:49:53;;;;;;;0.60;0.50;;;19.70;22.80;;;;;;5054627;28;20566;-50
2021/01/31 05:52:22;;;;;;;0.88;0.80;;;19.60;22.70;;;;;;5054128;28;20186;-51
2021/01/31 05:54:49;;;;;;;0.70;0.60;;;19.60;22.70;;;;;;5054747;28;20159;-51
2021/01/31 05:57:23;;;;;;;0.80;0.60;;;19.70;22.70;;;;;;5054346;28;20484;-51
2021/01/31 05:59:49;;;;;;;1.48;0.90;;;19.70;22.70;;;;;;5054623;28;20206;-51
2021/01/31 06:02:31;;;;;;;0.77;0.60;;;19.70;22.80;;;;;;5054279;28;20606;-51
2021/01/31 06:05:17;;;;;;;0.80;0.60;;;19.70;22.70;;;;;;5054344;28;20147;-50
2021/01/31 06:07:44;;;;;;;0.60;0.60;;;19.70;22.70;;;;;;5053749;28;20163;-51
2021/01/31 06:10:19;;;;;;;0.85;0.65;;;19.70;22.70;;;;;;5054504;28;20190;-52
2021/01/31 06:12:49;;;;;;;0.68;0.50;;;19.70;22.70;;;;;;5053999;28;20158;-51
2021/01/31 06:15:21;;;;;;;1.10;0.70;;;19.70;22.70;;;;;;5054273;28;20155;-51
2021/01/31 06:18:06;;;;;;;0.60;0.50;;;19.70;22.70;;;;;;5054210;28;20221;-50
2021/01/31 06:20:36;;;;;;;0.90;0.75;;;19.70;22.80;;;;;;5054191;28;20245;-51
2021/01/31 06:23:05;;;;;;;0.73;0.60;;;19.70;22.70;;;;;;5053516;28;20645;-51
2021/01/31 06:25:40;;;;;;;0.80;0.80;;;19.70;22.70;;;;;;5054005;28;20250;-51
2021/01/31 06:28:09;;;;;;;0.82;0.70;;;19.70;22.70;;;;;;5053717;28;20178;-51
2021/01/31 06:30:38;;;;;;;0.68;0.60;;;19.70;22.70;;;;;;5053969;28;20220;-51
2021/01/31 06:33:04;;;;;;;1.25;0.68;;;19.70;22.70;;;;;;5054084;28;20177;-51
2021/01/31 06:35:30;;;;;;;0.60;0.50;;;19.70;22.70;;;;;;5053958;28;20603;-51
2021/01/31 06:38:16;;;;;;;0.80;0.60;;;19.70;22.70;;;;;;5053291;28;20163;-51
2021/01/31 06:41:02;;;;;;;0.80;0.80;;;19.70;22.70;;;;;;5053704;28;20382;-50
2021/01/31 06:43:33;;;;;;;0.70;0.63;;;19.70;22.70;;;;;;5053772;28;20174;-50
2021/01/31 06:46:08;;;;;;;0.70;0.63;;;19.70;22.70;;;;;;5053541;28;20630;-50
2021/01/31 06:49:05;;;;;;;0.70;0.50;;;19.70;22.70;;;;;;5053644;28;20253;-50
2021/01/31 06:51:46;;;;;;;1.15;0.63;;;19.70;22.70;;;;;;5053357;28;20186;-52
2021/01/31 06:54:18;;;;;;;0.60;0.50;;;19.70;22.70;;;;;;5052907;28;20158;-51
2021/01/31 06:56:58;;;;;;;0.70;0.60;;;19.70;22.70;;;;;;5053766;28;20162;-51
2021/01/31 06:59:35;;;;;;;0.80;0.75;;;19.70;22.70;;;;;;5053469;28;20185;-51
2021/01/31 07:02:10;;;;;;;1.77;0.80;;;19.70;22.70;;;;;;5053525;28;20195;-51
2021/01/31 07:05:12;;;;;;;0.60;0.52;;;19.70;22.70;;;;;;5053630;28;20200;-50
2021/01/31 07:08:00;;;;;;;0.80;0.70;;;19.70;22.70;;;;;;5052967;28;20237;-50
2021/01/31 07:10:52;;;;;;;0.75;0.75;;;19.70;22.70;;;;;;5053244;28;20159;-50
2021/01/31 07:13:27;;;;;;;0.80;0.80;;;19.70;22.70;;;;;;5053178;28;20219;-51
2021/01/31 07:16:17;;;;;;;0.93;0.82;;;19.70;22.70;;;;;;5053456;28;20617;-51
2021/01/31 07:19:07;;;;;;;1.13;0.90;;;19.70;22.70;;;;;;5053385;28;20191;-51
2021/01/31 07:22:01;;;;;;;0.70;0.70;;;19.70;22.70;;;;;;5053321;28;20167;-50
2021/01/31 07:24:45;;;;;;;0.63;0.50;;;19.70;22.70;;;;;;5052884;28;20164;-51
2021/01/31 07:27:31;;;;;;;0.70;0.60;;;19.70;22.70;;;;;;5053183;28;20182;-51
2021/01/31 07:30:07;;;;;;;0.60;0.50;;;19.70;22.70;;;;;;5053325;28;20154;-51
2021/01/31 07:33:07;;;;;;;1.05;0.95;;;19.70;22.60;;;;;;5053042;28;20177;-51
2021/01/31 07:35:53;;;;;;;0.70;0.60;;;19.70;22.60;;;;;;5053110;28;20151;-52
2021/01/31 07:38:25;;;;;;;0.70;0.60;;;19.70;22.60;;;;;;5052733;28;20614;-51
2021/01/31 07:40:54;;;;;;;0.60;0.60;;;19.70;22.60;;;;;;5053111;28;20224;-51
2021/01/31 07:43:22;;;;;;;0.80;0.60;;;19.70;22.60;;;;;;5053166;28;20221;-52
2021/01/31 07:45:48;;;;;;;0.90;0.77;;;19.70;22.60;;;;;;5053129;28;20156;-51
2021/01/31 07:48:43;;;;;;;1.20;0.50;;;19.70;22.60;;;;;;5052993;28;20198;-51
2021/01/31 07:51:10;;;;;;;1.10;1.00;;;19.80;22.70;;;;;;5030789;28;20287;-51
2021/01/31 07:53:38;;;;;;;0.60;0.52;;;19.80;22.70;;;;;;5052574;28;20173;-50
2021/01/31 07:56:34;;;;;;;1.02;0.65;;;19.80;22.60;;;;;;5053081;28;20246;-51
2021/01/31 07:59:09;;;;;;;0.73;0.70;;;19.80;22.60;;;;;;5051777;28;20179;-51
2021/01/31 08:01:41;;;;;;;0.70;0.60;;;19.80;22.60;;;;;;5052975;28;20158;-50
2021/01/31 08:04:25;;;;;;;0.80;0.65;;;19.80;22.60;;;;;;5056104;28;20160;-51
2021/01/31 08:06:57;;;;;;;0.70;0.70;;;19.80;22.60;;;;;;5056368;28;20159;-50
2021/01/31 08:09:26;;;;;;;0.57;0.50;;;19.80;22.50;;;;;;5056139;28;20235;-50
2021/01/31 08:12:13;;;;;;;0.75;0.55;;;19.80;22.60;;;;;;5056454;28;20534;-51
2021/01/31 08:15:05;;;;;;;1.00;0.60;;;19.80;22.50;;;;;;5056356;28;20223;-50
2021/01/31 08:17:54;;;;;;;0.90;0.70;;;19.90;22.60;;;;;;5056471;28;20152;-50
2021/01/31 08:20:32;;;;;;;0.90;0.80;;;19.90;22.60;;;;;;5056387;28;20193;-50
2021/01/31 08:23:01;;;;;;;0.70;0.60;;;19.90;22.60;;;;;;5055747;28;20155;-50
2021/01/31 08:25:33;;;;;;;0.70;0.60;;;19.90;22.60;;;;;;5056266;28;20249;-50
2021/01/31 08:28:01;;;;;;;0.77;0.68;;;19.90;22.50;;;;;;5055903;28;20273;-51
2021/01/31 08:30:32;;;;;;;1.30;0.90;;;19.90;22.60;;;;;;5056109;28;20159;-50
2021/01/31 08:32:58;;;;;;;0.85;0.68;;;19.90;22.60;;;;;;5056024;28;20159;-50
2021/01/31 08:36:01;;;;;;;0.53;0.50;;;19.90;22.50;;;;;;5055992;28;20507;-50
2021/01/31 08:38:32;;;;;;;0.68;0.68;;;19.90;22.50;;;;;;5055836;28;20159;-50
2021/01/31 08:41:03;;;;;;;1.20;0.75;;;19.90;22.50;;;;;;5056281;28;20160;-50
2021/01/31 08:43:43;;;;;;;1.17;0.77;;;19.90;22.50;;;;;;5055976;28;20155;-50
2021/01/31 08:46:27;;;;;;;0.80;0.60;;;19.90;22.50;;;;;;5055683;28;20210;-50
2021/01/31 08:48:56;;;;;;;0.82;0.82;;;20.00;22.50;;;;;;5055686;28;20174;-51
2021/01/31 08:51:33;;;;;;;0.80;0.70;;;19.90;22.50;;;;;;5055699;28;20183;-51
2021/01/31 08:54:12;;;;;;;0.85;0.60;;;20.00;22.50;;;;;;5055259;28;20637;-50
2021/01/31 08:56:53;;;;;;;0.70;0.60;;;20.00;22.50;;;;;;5055825;28;20206;-50
2021/01/31 08:59:20;;;;;;;1.02;0.90;;;20.00;22.50;;;;;;5055658;28;20179;-50
2021/01/31 09:01:51;;;;;;;0.70;0.50;;;20.00;22.40;;;;;;5055562;28;20159;-50
2021/01/31 09:04:19;;;;;;;0.90;0.68;;;20.00;22.40;;;;;;5055480;28;20151;-50
2021/01/31 09:06:48;;;;;;;0.60;0.60;;;20.00;22.40;;;;;;5055371;28;20599;-50
2021/01/31 09:09:25;;;;;;;0.80;0.80;;;20.00;22.40;;;;;;5054972;28;20163;-51
2021/01/31 09:11:56;;;;;;;0.90;0.70;;;20.00;22.30;;;;;;5055320;28;20225;-51
2021/01/31 09:14:41;;;;;;;0.60;0.50;;;20.00;22.90;;;;;;5055034;28;20265;-50
2021/01/31 09:17:10;;;;;;;0.98;0.73;;;20.00;22.30;;;;;;5055190;28;20178;-51
2021/01/31 09:19:37;;;;;;;1.15;0.73;;;20.10;22.40;;;;;;5055096;28;20183;-51
2021/01/31 09:22:12;;;;;;;0.60;0.60;;;20.10;22.30;;;;;;5055130;28;20194;-50
2021/01/31 09:24:40;;;;;;;1.08;0.70;;;20.10;22.30;;;;;;5055172;28;20150;-52
2021/01/31 09:27:08;;;;;;;0.60;0.60;;;20.10;22.30;;;;;;5055029;28;20190;-50
2021/01/31 09:29:34;;;;;;;0.60;0.57;;;20.10;22.30;;;;;;5054843;28;20155;-50
2021/01/31 09:32:24;;;;;;;1.07;0.90;;;20.10;22.30;;;;;;5055087;28;20507;-50
2021/01/31 09:34:51;;;;;;;0.80;0.70;;;20.10;22.20;;;;;;5055022;28;20179;-51
2021/01/31 09:37:23;;;;;;;0.60;0.52;;;20.10;22.20;;;;;;5054333;28;20178;-51
2021/01/31 09:39:51;;;;;;;0.75;0.75;;;20.10;22.20;;;;;;5054987;28;20146;-50
2021/01/31 09:42:20;;;;;;;0.90;0.80;;;20.20;22.20;;;;;;5054632;28;20239;-51
2021/01/31 09:44:56;;;;;;;0.80;0.65;;;20.20;22.20;;;;;;5054997;28;20159;-50
2021/01/31 09:47:23;;;;;;;0.70;0.60;;;20.20;22.20;;;;;;5054516;28;20167;-50
2021/01/31 09:49:52;;;;;;;0.70;0.68;;;20.20;22.20;;;;;;5054520;28;20167;-50
2021/01/31 09:52:18;;;;;;;0.50;0.40;;;20.20;22.10;;;;;;5054171;28;20222;-51
2021/01/31 09:54:44;;;;;;;0.73;0.60;;;20.20;22.10;;;;;;5054823;28;20198;-52
2021/01/31 09:57:27;;;;;;;1.37;1.03;;;20.20;22.10;;;;;;5054486;28;20409;-50
2021/01/31 10:00:09;;;;;;;0.68;0.65;;;20.20;22.10;;;;;;5054642;28;20201;-50
2021/01/31 10:02:36;;;;;;;0.70;0.60;;;20.20;22.10;;;;;;5054335;28;20186;-51
2021/01/31 10:05:05;;;;;;;0.73;0.70;;;20.20;22.10;;;;;;5054214;28;20628;-50
2021/01/31 10:07:35;;;;;;;0.60;0.60;;;20.20;22.00;;;;;;5053926;28;20240;-51
2021/01/31 10:10:23;;;;;;;0.75;0.70;;;20.20;22.00;;;;;;5054454;28;20170;-50
2021/01/31 10:12:49;;;;;;;0.70;0.60;;;20.30;22.10;;;;;;5054152;28;20227;-50
2021/01/31 10:15:35;;;;;;;0.60;0.50;;;20.30;22.10;;;;;;5054455;28;20159;-50
2021/01/31 10:18:01;;;;;;;0.60;0.50;;;20.30;22.10;;;;;;5053958;28;20644;-51
2021/01/31 10:20:30;;;;;;;0.70;0.70;;;20.30;22.00;;;;;;5054111;28;20238;-51
2021/01/31 10:23:19;;;;;;;0.85;0.80;;;20.30;22.00;;;;;;5053500;28;20151;-51
2021/01/31 10:26:02;;;;;;;0.77;0.52;;;20.30;22.00;;;;;;5052877;28;20270;-50
2021/01/31 10:28:33;;;;;;;0.68;0.68;;;20.30;21.90;;;;;;5033988;28;20243;-51
2021/01/31 10:30:59;;;;;;;0.77;0.65;;;20.30;21.90;;;;;;5034044;28;20256;-51
2021/01/31 10:33:43;;;;;;;0.80;0.60;;;20.40;21.90;;;;;;5033955;28;20199;-51
2021/01/31 10:36:28;;;;;;;0.80;0.70;;;20.40;21.80;;;;;;5033986;28;20190;-51
2021/01/31 10:38:56;;;;;;;0.90;0.70;;;20.50;21.80;;;;;;5033267;28;20156;-50
2021/01/31 10:41:22;;;;;;;0.65;0.65;;;20.50;21.70;;;;;;5033789;28;20210;-51
2021/01/31 10:43:56;;;;;;;0.70;0.63;;;20.50;21.60;;;;;;5033833;28;20171;-51
2021/01/31 10:46:23;;;;;;;0.75;0.70;;;20.60;21.10;;;;;;5033746;28;20390;-50
2021/01/31 10:48:49;;;;;;;0.77;0.70;;;20.60;21.60;;;;;;5033780;28;20619;-50
2021/01/31 10:51:18;;;;;;;0.50;0.50;;;20.60;21.50;;;;;;5033620;28;20199;-50
2021/01/31 10:53:43;;;;;;;0.70;0.70;;;20.60;21.50;;;;;;5033171;28;20488;-51
2021/01/31 10:56:09;;;;;;;0.67;0.67;;;20.60;21.50;;;;;;5032450;28;20682;-50
2021/01/31 10:58:35;;;;;;;0.60;0.60;;;20.60;21.40;;;;;;5033860;28;20642;-51
2021/01/31 11:01:00;;;;;;;0.83;0.70;;;20.60;21.40;;;;;;5033171;28;20179;-51
2021/01/31 11:03:26;;;;;;;0.90;0.60;;;20.70;21.50;;;;;;5033548;28;20160;-51
2021/01/31 11:05:52;;;;;;;0.73;0.60;;;20.70;21.50;;;;;;5033629;28;20410;-51
2021/01/31 11:08:17;;;;;;;0.57;0.50;;;20.70;21.50;;;;;;5033463;28;20179;-50
2021/01/31 11:10:43;;;;;;;0.60;0.50;;;20.70;21.50;;;;;;5033369;28;20215;-51
2021/01/31 11:13:09;;;;;;;0.67;0.67;;;20.70;21.40;;;;;;5033205;28;20594;-51
2021/01/31 11:15:35;;;;;;;0.60;0.53;;;20.70;21.40;;;;;;5033401;28;20160;-50
2021/01/31 11:18:00;;;;;;;2.67;0.73;;;20.70;21.40;;;;;;5033287;28;20638;-50
2021/01/31 11:20:26;;;;;;;0.97;0.60;;;20.70;21.30;;;;;;5033347;28;20710;-51
2021/01/31 11:22:51;;;;;;;0.60;0.60;;;20.70;21.30;;;;;;5032729;28;20156;-51
2021/01/31 11:25:18;;;;;;;0.70;0.60;;;20.70;21.30;;;;;;5033178;28;20551;-51
2021/01/31 11:27:43;;;;;;;1.05;0.70;;;20.70;21.30;;;;;;5047757;28;20258;-50
2021/01/31 11:30:09;;;;;;;1.10;0.80;;;20.80;21.30;;;;;;5053152;28;20239;-50
2021/01/31 11:32:35;;;;;;;0.90;0.80;;;20.80;21.20;;;;;;5052845;28;20187;-51
2021/01/31 11:35:01;;;;;;;0.73;0.73;;;20.80;21.10;;;;;;5053034;28;20602;-51
2021/01/31 11:37:27;;;;;;;0.63;0.60;;;20.90;21.00;;;;;;5053165;28;20194;-52
2021/01/31 11:39:52;;;;;;;0.70;0.70;;;20.90;20.90;;;;;;5057022;28;20242;-51
2021/01/31 11:42:21;;;;;;;0.70;0.70;;;20.90;20.90;;;;;;5056841;28;20167;-51
2021/01/31 11:44:50;;;;;;;1.55;0.95;;;20.90;20.90;;;;;;5056717;28;20562;-50
2021/01/31 11:47:21;;;;;;;0.80;0.70;;;21.00;20.90;;;;;;5056689;28;20160;-50
2021/01/31 11:49:47;;;;;;;0.85;0.80;;;21.00;20.90;;;;;;5056822;28;20182;-51
2021/01/31 11:52:13;;;;;;;1.13;1.02;;;21.00;20.90;;;;;;5056189;28;20274;-51
2021/01/31 11:54:39;;;;;;;2.83;0.70;;;21.00;20.90;;;;;;5056944;28;20191;-51
2021/01/31 11:57:04;;;;;;;0.97;0.63;;;21.30;21.10;;;;;;5056780;28;20233;-51
2021/01/31 11:59:30;;;;;;;0.70;0.53;;;21.00;20.90;;;;;;5056722;28;20627;-50
2021/01/31 12:01:55;;;;;;;1.20;1.00;;;21.00;20.90;;;;;;5056797;28;20178;-51
2021/01/31 12:04:21;;;;;;;0.60;0.60;;;21.00;20.90;;;;;;5056646;28;20174;-51
2021/01/31 12:06:47;;;;;;;0.70;0.57;;;21.00;20.90;;;;;;5056499;28;20249;-51
2021/01/31 12:09:12;;;;;;;0.70;0.63;;;21.00;20.90;;;;;;5056183;28;20242;-50
2021/01/31 12:11:38;;;;;;;0.70;0.60;;;21.00;20.90;;;;;;5056489;28;20256;-51
2021/01/31 12:14:04;;;;;;;0.80;0.70;;;21.00;20.90;;;;;;5056229;28;20674;-51
2021/01/31 12:16:29;;;;;;;0.80;0.60;;;21.00;21.00;;;;;;5056587;28;20170;-51
2021/01/31 12:18:55;;;;;;;0.70;0.50;;;21.00;20.90;;;;;;5056469;28;20175;-51
2021/01/31 12:21:23;;;;;;;0.70;0.70;;;21.00;20.90;;;;;;5056310;28;20187;-52
2021/01/31 12:23:48;;;;;;;0.65;0.65;;;21.00;20.90;;;;;;5055894;28;20163;-50
2021/01/31 12:26:14;;;;;;;0.70;0.57;;;21.00;20.90;;;;;;5056194;28;20171;-50
2021/01/31 12:28:40;;;;;;;1.00;0.90;;;21.00;20.90;;;;;;5056414;28;20558;-51
2021/01/31 12:31:05;;;;;;;0.97;0.83;;;21.00;20.90;;;;;;5056132;28;20292;-52
2021/01/31 12:33:31;;;;;;;1.10;1.00;;;21.00;20.90;;;;;;5056127;28;20603;-51
2021/01/31 12:35:56;;;;;;;0.97;0.90;;;21.00;20.90;;;;;;5056027;28;20159;-51
2021/01/31 12:38:22;;;;;;;1.27;0.97;;;21.00;20.90;;;;;;5055625;28;20156;-51
2021/01/31 12:40:48;;;;;;;1.20;0.90;;;21.00;20.90;;;;;;5056252;28;20163;-51
2021/01/31 12:43:14;;;;;;;1.20;1.10;;;21.00;20.90;;;;;;5055878;28;20156;-51
2021/01/31 12:45:39;;;;;;;0.90;0.90;;;21.00;20.90;;;;;;5054839;28;20182;-51
2021/01/31 12:48:05;;;;;;;1.30;1.20;;;21.00;20.90;;;;;;5055221;28;20160;-51
2021/01/31 12:50:31;;;;;;;1.17;1.07;;;21.00;20.90;;;;;;5055772;28;20872;-51
2021/01/31 12:52:57;;;;;;;1.40;1.30;;;21.00;20.90;;;;;;5055190;28;20407;-51
2021/01/31 12:55:23;;;;;;;1.23;1.13;;;21.00;20.90;;;;;;5055699;28;20414;-51
2021/01/31 12:57:49;;;;;;;2.10;1.20;;;21.00;20.90;;;;;;5037454;28;20430;-51
2021/01/31 13:00:19;;;;;;;1.33;1.23;;;21.00;20.90;;;;;;5055694;28;20187;-50
2021/01/31 13:02:44;;;;;;;2.00;1.20;;;21.00;20.90;;;;;;5055622;28;20273;-51
2021/01/31 13:05:12;;;;;;;1.63;1.40;;;20.90;20.80;;;;;;5055433;28;20619;-51
2021/01/31 13:07:38;;;;;;;1.10;1.00;;;20.90;20.90;;;;;;5055049;28;20190;-50
2021/01/31 13:10:05;;;;;;;1.40;1.30;;;20.90;20.90;;;;;;5055249;28;20213;-51
2021/01/31 13:12:31;;;;;;;2.30;1.50;;;20.90;20.90;;;;;;5054793;28;20203;-51
2021/01/31 13:14:57;;;;;;;1.43;1.00;;;20.90;20.90;;;;;;5055242;28;20163;-51